sensor_id;sensor_type;location;lat;lon;timestamp;P1;durP1;ratioP1;P2;durP2;ratioP2
79697;SDS011;69168;42.708;23.286;2023-05-10T00:00:27;3.72;;;2.90;;
79697;SDS011;69168;42.708;23.286;2023-05-10T00:02:52;5.43;;;3.03;;
79697;SDS011;69168;42.708;23.286;2023-05-10T00:05:18;5.80;;;3.03;;
79697;SDS011;69168;42.708;23.286;2023-05-10T00:07:43;3.45;;;2.50;;
79697;SDS011;69168;42.708;23.286;2023-05-10T00:10:12;3.70;;;2.90;;
79697;SDS011;69168;42.708;23.286;2023-05-10T00:12:37;5.18;;;3.10;;
79697;SDS011;69168;42.708;23.286;2023-05-10T00:15:03;4.13;;;3.13;;
79697;SDS011;69168;42.708;23.286;2023-05-10T00:17:29;3.42;;;2.83;;
79697;SDS011;69168;42.708;23.286;2023-05-10T00:19:54;5.22;;;3.55;;
79697;SDS011;69168;42.708;23.286;2023-05-10T00:22:20;5.25;;;3.72;;
79697;SDS011;69168;42.708;23.286;2023-05-10T00:24:46;5.35;;;3.90;;
79697;SDS011;69168;42.708;23.286;2023-05-10T00:27:11;6.10;;;3.58;;
79697;SDS011;69168;42.708;23.286;2023-05-10T00:29:37;5.40;;;4.25;;
79697;SDS011;69168;42.708;23.286;2023-05-10T00:32:02;7.00;;;5.38;;
79697;SDS011;69168;42.708;23.286;2023-05-10T00:34:28;5.28;;;4.30;;
79697;SDS011;69168;42.708;23.286;2023-05-10T00:36:53;5.88;;;4.07;;
79697;SDS011;69168;42.708;23.286;2023-05-10T00:39:19;6.88;;;4.90;;
79697;SDS011;69168;42.708;23.286;2023-05-10T00:41:45;6.95;;;4.72;;
79697;SDS011;69168;42.708;23.286;2023-05-10T00:44:12;6.07;;;4.90;;
79697;SDS011;69168;42.708;23.286;2023-05-10T00:46:37;6.05;;;4.13;;
79697;SDS011;69168;42.708;23.286;2023-05-10T00:49:03;6.47;;;5.38;;
79697;SDS011;69168;42.708;23.286;2023-05-10T00:51:29;5.43;;;4.45;;
79697;SDS011;69168;42.708;23.286;2023-05-10T00:53:56;6.55;;;4.88;;
79697;SDS011;69168;42.708;23.286;2023-05-10T00:56:21;7.72;;;4.82;;
79697;SDS011;69168;42.708;23.286;2023-05-10T00:58:48;5.03;;;4.07;;
79697;SDS011;69168;42.708;23.286;2023-05-10T01:01:14;6.78;;;5.07;;
79697;SDS011;69168;42.708;23.286;2023-05-10T01:03:39;7.68;;;4.68;;
79697;SDS011;69168;42.708;23.286;2023-05-10T01:06:05;7.05;;;5.25;;
79697;SDS011;69168;42.708;23.286;2023-05-10T01:08:31;9.50;;;6.00;;
79697;SDS011;69168;42.708;23.286;2023-05-10T01:10:56;7.22;;;5.72;;
79697;SDS011;69168;42.708;23.286;2023-05-10T01:13:33;7.32;;;5.20;;
79697;SDS011;69168;42.708;23.286;2023-05-10T01:16:02;7.38;;;5.20;;
79697;SDS011;69168;42.708;23.286;2023-05-10T01:18:29;7.65;;;5.40;;
79697;SDS011;69168;42.708;23.286;2023-05-10T01:24:16;6.70;;;5.43;;
79697;SDS011;69168;42.708;23.286;2023-05-10T01:27:14;8.25;;;5.60;;
79697;SDS011;69168;42.708;23.286;2023-05-10T01:35:34;5.60;;;4.78;;
79697;SDS011;69168;42.708;23.286;2023-05-10T01:41:24;7.78;;;4.90;;
79697;SDS011;69168;42.708;23.286;2023-05-10T01:46:55;6.45;;;4.72;;
79697;SDS011;69168;42.708;23.286;2023-05-10T01:49:27;5.50;;;4.65;;
79697;SDS011;69168;42.708;23.286;2023-05-10T01:51:57;6.18;;;4.85;;
79697;SDS011;69168;42.708;23.286;2023-05-10T01:54:28;4.97;;;4.05;;
79697;SDS011;69168;42.708;23.286;2023-05-10T01:56:56;4.95;;;4.32;;
79697;SDS011;69168;42.708;23.286;2023-05-10T01:59:29;4.57;;;4.07;;
79697;SDS011;69168;42.708;23.286;2023-05-10T02:02:01;5.68;;;4.20;;
79697;SDS011;69168;42.708;23.286;2023-05-10T02:04:29;6.28;;;4.07;;
79697;SDS011;69168;42.708;23.286;2023-05-10T02:06:56;5.72;;;4.07;;
79697;SDS011;69168;42.708;23.286;2023-05-10T02:09:22;5.13;;;4.55;;
79697;SDS011;69168;42.708;23.286;2023-05-10T02:11:50;5.57;;;4.53;;
79697;SDS011;69168;42.708;23.286;2023-05-10T02:14:16;5.18;;;4.18;;
79697;SDS011;69168;42.708;23.286;2023-05-10T02:16:43;4.00;;;3.60;;
79697;SDS011;69168;42.708;23.286;2023-05-10T02:19:10;4.80;;;4.30;;
79697;SDS011;69168;42.708;23.286;2023-05-10T02:21:39;3.70;;;3.25;;
79697;SDS011;69168;42.708;23.286;2023-05-10T02:24:05;4.00;;;3.60;;
79697;SDS011;69168;42.708;23.286;2023-05-10T02:26:32;5.22;;;3.63;;
79697;SDS011;69168;42.708;23.286;2023-05-10T02:28:59;3.72;;;3.40;;
79697;SDS011;69168;42.708;23.286;2023-05-10T02:31:29;5.22;;;3.10;;
79697;SDS011;69168;42.708;23.286;2023-05-10T02:33:57;3.90;;;3.13;;
79697;SDS011;69168;42.708;23.286;2023-05-10T02:36:23;4.30;;;3.17;;
79697;SDS011;69168;42.708;23.286;2023-05-10T02:38:52;5.22;;;3.50;;
79697;SDS011;69168;42.708;23.286;2023-05-10T02:41:18;4.82;;;3.25;;
79697;SDS011;69168;42.708;23.286;2023-05-10T02:43:46;5.57;;;3.30;;
79697;SDS011;69168;42.708;23.286;2023-05-10T02:46:14;8.75;;;3.50;;
79697;SDS011;69168;42.708;23.286;2023-05-10T02:48:39;4.63;;;3.42;;
79697;SDS011;69168;42.708;23.286;2023-05-10T02:51:05;4.18;;;3.17;;
79697;SDS011;69168;42.708;23.286;2023-05-10T02:53:33;6.90;;;3.38;;
79697;SDS011;69168;42.708;23.286;2023-05-10T02:56:01;4.57;;;3.50;;
79697;SDS011;69168;42.708;23.286;2023-05-10T02:58:32;6.43;;;3.78;;
79697;SDS011;69168;42.708;23.286;2023-05-10T03:00:59;5.68;;;3.42;;
79697;SDS011;69168;42.708;23.286;2023-05-10T03:03:25;4.43;;;3.45;;
79697;SDS011;69168;42.708;23.286;2023-05-10T03:05:51;4.32;;;3.45;;
79697;SDS011;69168;42.708;23.286;2023-05-10T03:08:18;4.15;;;2.97;;
79697;SDS011;69168;42.708;23.286;2023-05-10T03:10:47;4.22;;;3.17;;
79697;SDS011;69168;42.708;23.286;2023-05-10T03:13:39;6.65;;;3.00;;
79697;SDS011;69168;42.708;23.286;2023-05-10T03:16:10;6.00;;;3.15;;
79697;SDS011;69168;42.708;23.286;2023-05-10T03:21:14;5.72;;;3.20;;
79697;SDS011;69168;42.708;23.286;2023-05-10T03:23:48;6.65;;;4.25;;
79697;SDS011;69168;42.708;23.286;2023-05-10T03:26:20;5.50;;;3.35;;
79697;SDS011;69168;42.708;23.286;2023-05-10T03:28:50;5.57;;;3.60;;
79697;SDS011;69168;42.708;23.286;2023-05-10T03:33:46;6.68;;;3.72;;
79697;SDS011;69168;42.708;23.286;2023-05-10T03:36:13;5.68;;;3.80;;
79697;SDS011;69168;42.708;23.286;2023-05-10T03:38:39;8.25;;;4.10;;
79697;SDS011;69168;42.708;23.286;2023-05-10T03:41:04;5.65;;;3.80;;
79697;SDS011;69168;42.708;23.286;2023-05-10T03:43:29;6.72;;;3.70;;
79697;SDS011;69168;42.708;23.286;2023-05-10T03:45:55;6.18;;;4.07;;
79697;SDS011;69168;42.708;23.286;2023-05-10T03:48:20;7.25;;;4.30;;
79697;SDS011;69168;42.708;23.286;2023-05-10T03:50:46;6.50;;;3.63;;
79697;SDS011;69168;42.708;23.286;2023-05-10T03:53:12;6.50;;;4.18;;
79697;SDS011;69168;42.708;23.286;2023-05-10T03:55:37;6.30;;;3.73;;
79697;SDS011;69168;42.708;23.286;2023-05-10T03:58:02;4.57;;;3.72;;
79697;SDS011;69168;42.708;23.286;2023-05-10T04:00:28;6.15;;;3.90;;
79697;SDS011;69168;42.708;23.286;2023-05-10T04:02:53;4.45;;;3.38;;
79697;SDS011;69168;42.708;23.286;2023-05-10T04:05:19;5.93;;;3.60;;
79697;SDS011;69168;42.708;23.286;2023-05-10T04:07:44;7.63;;;4.30;;
79697;SDS011;69168;42.708;23.286;2023-05-10T04:10:10;6.32;;;4.22;;
79697;SDS011;69168;42.708;23.286;2023-05-10T04:12:36;5.90;;;4.30;;
79697;SDS011;69168;42.708;23.286;2023-05-10T04:15:01;7.70;;;5.57;;
79697;SDS011;69168;42.708;23.286;2023-05-10T04:17:27;6.57;;;5.18;;
79697;SDS011;69168;42.708;23.286;2023-05-10T04:19:53;6.43;;;4.57;;
79697;SDS011;69168;42.708;23.286;2023-05-10T04:22:19;6.55;;;4.50;;
79697;SDS011;69168;42.708;23.286;2023-05-10T04:24:45;7.00;;;4.82;;
79697;SDS011;69168;42.708;23.286;2023-05-10T04:27:11;6.37;;;4.47;;
79697;SDS011;69168;42.708;23.286;2023-05-10T04:29:36;5.63;;;4.38;;
79697;SDS011;69168;42.708;23.286;2023-05-10T04:32:03;6.90;;;3.92;;
79697;SDS011;69168;42.708;23.286;2023-05-10T04:34:29;5.82;;;4.30;;
79697;SDS011;69168;42.708;23.286;2023-05-10T04:36:54;7.38;;;3.83;;
79697;SDS011;69168;42.708;23.286;2023-05-10T04:39:20;11.05;;;4.70;;
79697;SDS011;69168;42.708;23.286;2023-05-10T04:41:45;6.47;;;4.20;;
79697;SDS011;69168;42.708;23.286;2023-05-10T04:44:11;6.82;;;4.63;;
79697;SDS011;69168;42.708;23.286;2023-05-10T04:46:36;7.90;;;4.35;;
79697;SDS011;69168;42.708;23.286;2023-05-10T04:49:02;5.72;;;4.25;;
79697;SDS011;69168;42.708;23.286;2023-05-10T04:51:27;7.07;;;4.43;;
79697;SDS011;69168;42.708;23.286;2023-05-10T04:53:52;6.35;;;4.10;;
79697;SDS011;69168;42.708;23.286;2023-05-10T04:56:18;4.93;;;3.58;;
79697;SDS011;69168;42.708;23.286;2023-05-10T04:58:43;7.72;;;4.00;;
79697;SDS011;69168;42.708;23.286;2023-05-10T05:01:09;6.72;;;3.65;;
79697;SDS011;69168;42.708;23.286;2023-05-10T05:03:35;5.25;;;4.15;;
79697;SDS011;69168;42.708;23.286;2023-05-10T05:06:01;6.07;;;4.40;;
79697;SDS011;69168;42.708;23.286;2023-05-10T05:08:27;7.22;;;3.97;;
79697;SDS011;69168;42.708;23.286;2023-05-10T05:10:52;4.72;;;3.63;;
79697;SDS011;69168;42.708;23.286;2023-05-10T05:13:18;6.47;;;4.00;;
79697;SDS011;69168;42.708;23.286;2023-05-10T05:15:43;6.20;;;4.55;;
79697;SDS011;69168;42.708;23.286;2023-05-10T05:18:09;8.20;;;4.60;;
79697;SDS011;69168;42.708;23.286;2023-05-10T05:20:34;7.07;;;5.13;;
79697;SDS011;69168;42.708;23.286;2023-05-10T05:23:00;7.13;;;4.68;;
79697;SDS011;69168;42.708;23.286;2023-05-10T05:25:26;7.07;;;4.70;;
79697;SDS011;69168;42.708;23.286;2023-05-10T05:27:51;7.38;;;5.13;;
79697;SDS011;69168;42.708;23.286;2023-05-10T05:30:16;6.80;;;4.57;;
79697;SDS011;69168;42.708;23.286;2023-05-10T05:32:42;8.45;;;5.35;;
79697;SDS011;69168;42.708;23.286;2023-05-10T05:35:08;9.80;;;5.60;;
79697;SDS011;69168;42.708;23.286;2023-05-10T05:37:33;8.52;;;5.05;;
79697;SDS011;69168;42.708;23.286;2023-05-10T05:39:59;9.77;;;4.97;;
79697;SDS011;69168;42.708;23.286;2023-05-10T05:42:26;8.57;;;4.53;;
79697;SDS011;69168;42.708;23.286;2023-05-10T05:44:52;6.90;;;5.50;;
79697;SDS011;69168;42.708;23.286;2023-05-10T05:47:17;7.75;;;5.28;;
79697;SDS011;69168;42.708;23.286;2023-05-10T05:49:43;8.05;;;4.97;;
79697;SDS011;69168;42.708;23.286;2023-05-10T05:52:10;7.85;;;5.15;;
79697;SDS011;69168;42.708;23.286;2023-05-10T05:54:36;6.75;;;4.75;;
79697;SDS011;69168;42.708;23.286;2023-05-10T05:57:02;8.18;;;5.25;;
79697;SDS011;69168;42.708;23.286;2023-05-10T05:59:27;7.65;;;5.53;;
79697;SDS011;69168;42.708;23.286;2023-05-10T06:01:53;8.50;;;5.35;;
79697;SDS011;69168;42.708;23.286;2023-05-10T06:04:18;7.43;;;5.68;;
79697;SDS011;69168;42.708;23.286;2023-05-10T06:06:44;9.40;;;5.35;;
79697;SDS011;69168;42.708;23.286;2023-05-10T06:09:10;8.38;;;5.40;;
79697;SDS011;69168;42.708;23.286;2023-05-10T06:11:37;7.28;;;5.20;;
79697;SDS011;69168;42.708;23.286;2023-05-10T06:14:03;9.43;;;5.50;;
79697;SDS011;69168;42.708;23.286;2023-05-10T06:16:33;8.50;;;5.78;;
79697;SDS011;69168;42.708;23.286;2023-05-10T06:18:59;7.53;;;5.10;;
79697;SDS011;69168;42.708;23.286;2023-05-10T06:21:24;7.30;;;5.47;;
79697;SDS011;69168;42.708;23.286;2023-05-10T06:23:50;10.55;;;4.90;;
79697;SDS011;69168;42.708;23.286;2023-05-10T06:26:16;8.98;;;5.45;;
79697;SDS011;69168;42.708;23.286;2023-05-10T06:28:41;10.68;;;5.70;;
79697;SDS011;69168;42.708;23.286;2023-05-10T06:31:06;8.68;;;5.57;;
79697;SDS011;69168;42.708;23.286;2023-05-10T06:33:32;7.85;;;4.93;;
79697;SDS011;69168;42.708;23.286;2023-05-10T06:35:58;7.43;;;4.68;;
79697;SDS011;69168;42.708;23.286;2023-05-10T06:38:24;9.55;;;4.90;;
79697;SDS011;69168;42.708;23.286;2023-05-10T06:40:49;9.73;;;4.90;;
79697;SDS011;69168;42.708;23.286;2023-05-10T06:43:15;8.63;;;4.63;;
79697;SDS011;69168;42.708;23.286;2023-05-10T06:45:41;8.10;;;5.18;;
79697;SDS011;69168;42.708;23.286;2023-05-10T06:48:06;9.15;;;4.78;;
79697;SDS011;69168;42.708;23.286;2023-05-10T06:50:32;9.20;;;4.57;;
79697;SDS011;69168;42.708;23.286;2023-05-10T06:52:58;5.35;;;4.50;;
79697;SDS011;69168;42.708;23.286;2023-05-10T06:55:24;12.52;;;7.75;;
79697;SDS011;69168;42.708;23.286;2023-05-10T06:57:49;9.13;;;6.28;;
79697;SDS011;69168;42.708;23.286;2023-05-10T07:00:15;10.52;;;7.18;;
79697;SDS011;69168;42.708;23.286;2023-05-10T07:02:41;12.85;;;6.47;;
79697;SDS011;69168;42.708;23.286;2023-05-10T07:05:07;10.13;;;6.03;;
79697;SDS011;69168;42.708;23.286;2023-05-10T07:07:33;7.82;;;5.68;;
79697;SDS011;69168;42.708;23.286;2023-05-10T07:09:58;7.70;;;5.38;;
79697;SDS011;69168;42.708;23.286;2023-05-10T07:12:24;13.80;;;7.88;;
79697;SDS011;69168;42.708;23.286;2023-05-10T07:14:49;18.13;;;9.25;;
79697;SDS011;69168;42.708;23.286;2023-05-10T07:17:15;12.45;;;7.18;;
79697;SDS011;69168;42.708;23.286;2023-05-10T07:19:40;8.02;;;6.07;;
79697;SDS011;69168;42.708;23.286;2023-05-10T07:22:06;14.10;;;6.40;;
79697;SDS011;69168;42.708;23.286;2023-05-10T07:24:32;10.68;;;5.80;;
79697;SDS011;69168;42.708;23.286;2023-05-10T07:26:58;8.45;;;5.68;;
79697;SDS011;69168;42.708;23.286;2023-05-10T07:29:24;8.10;;;5.72;;
79697;SDS011;69168;42.708;23.286;2023-05-10T07:31:49;7.82;;;5.93;;
79697;SDS011;69168;42.708;23.286;2023-05-10T07:34:15;10.95;;;6.43;;
79697;SDS011;69168;42.708;23.286;2023-05-10T07:36:40;12.82;;;7.95;;
79697;SDS011;69168;42.708;23.286;2023-05-10T07:39:06;10.05;;;7.70;;
79697;SDS011;69168;42.708;23.286;2023-05-10T07:41:31;8.45;;;5.68;;
79697;SDS011;69168;42.708;23.286;2023-05-10T07:43:57;10.60;;;6.65;;
79697;SDS011;69168;42.708;23.286;2023-05-10T07:46:23;10.90;;;6.88;;
79697;SDS011;69168;42.708;23.286;2023-05-10T07:48:48;9.57;;;5.70;;
79697;SDS011;69168;42.708;23.286;2023-05-10T07:51:14;8.70;;;6.07;;
79697;SDS011;69168;42.708;23.286;2023-05-10T07:53:39;10.43;;;6.72;;
79697;SDS011;69168;42.708;23.286;2023-05-10T07:58:52;8.40;;;6.10;;
79697;SDS011;69168;42.708;23.286;2023-05-10T08:01:19;9.73;;;6.15;;
79697;SDS011;69168;42.708;23.286;2023-05-10T08:03:44;12.30;;;6.95;;
79697;SDS011;69168;42.708;23.286;2023-05-10T08:06:10;8.95;;;6.05;;
79697;SDS011;69168;42.708;23.286;2023-05-10T08:08:36;9.38;;;6.65;;
79697;SDS011;69168;42.708;23.286;2023-05-10T08:11:01;12.90;;;6.60;;
79697;SDS011;69168;42.708;23.286;2023-05-10T08:13:27;8.00;;;6.00;;
79697;SDS011;69168;42.708;23.286;2023-05-10T08:15:52;11.10;;;7.07;;
79697;SDS011;69168;42.708;23.286;2023-05-10T08:18:18;10.52;;;6.70;;
79697;SDS011;69168;42.708;23.286;2023-05-10T08:20:44;9.93;;;6.68;;
79697;SDS011;69168;42.708;23.286;2023-05-10T08:23:09;10.65;;;7.60;;
79697;SDS011;69168;42.708;23.286;2023-05-10T08:25:37;14.77;;;7.13;;
79697;SDS011;69168;42.708;23.286;2023-05-10T08:28:02;10.93;;;7.28;;
79697;SDS011;69168;42.708;23.286;2023-05-10T08:30:28;9.05;;;6.72;;
79697;SDS011;69168;42.708;23.286;2023-05-10T08:32:53;10.20;;;7.38;;
79697;SDS011;69168;42.708;23.286;2023-05-10T08:35:19;11.95;;;7.40;;
79697;SDS011;69168;42.708;23.286;2023-05-10T08:37:44;12.50;;;8.65;;
79697;SDS011;69168;42.708;23.286;2023-05-10T08:40:10;8.82;;;6.32;;
79697;SDS011;69168;42.708;23.286;2023-05-10T08:42:36;13.75;;;7.00;;
79697;SDS011;69168;42.708;23.286;2023-05-10T08:45:06;10.77;;;7.28;;
79697;SDS011;69168;42.708;23.286;2023-05-10T08:47:32;9.07;;;6.47;;
79697;SDS011;69168;42.708;23.286;2023-05-10T08:52:25;8.48;;;5.97;;
79697;SDS011;69168;42.708;23.286;2023-05-10T08:54:51;10.48;;;6.60;;
79697;SDS011;69168;42.708;23.286;2023-05-10T08:57:17;9.35;;;6.45;;
79697;SDS011;69168;42.708;23.286;2023-05-10T08:59:44;7.03;;;5.60;;
79697;SDS011;69168;42.708;23.286;2023-05-10T09:02:09;7.70;;;5.50;;
79697;SDS011;69168;42.708;23.286;2023-05-10T09:04:36;7.88;;;6.30;;
79697;SDS011;69168;42.708;23.286;2023-05-10T09:07:02;7.43;;;5.43;;
79697;SDS011;69168;42.708;23.286;2023-05-10T09:09:27;9.25;;;6.20;;
79697;SDS011;69168;42.708;23.286;2023-05-10T09:11:53;7.45;;;6.00;;
79697;SDS011;69168;42.708;23.286;2023-05-10T09:14:19;10.57;;;6.72;;
79697;SDS011;69168;42.708;23.286;2023-05-10T09:16:45;8.68;;;6.78;;
79697;SDS011;69168;42.708;23.286;2023-05-10T09:19:11;8.40;;;6.82;;
79697;SDS011;69168;42.708;23.286;2023-05-10T09:21:37;10.35;;;5.53;;
79697;SDS011;69168;42.708;23.286;2023-05-10T09:24:03;8.50;;;5.97;;
79697;SDS011;69168;42.708;23.286;2023-05-10T09:26:30;9.27;;;6.13;;
79697;SDS011;69168;42.708;23.286;2023-05-10T09:28:57;7.43;;;6.18;;
79697;SDS011;69168;42.708;23.286;2023-05-10T09:31:24;11.45;;;6.75;;
79697;SDS011;69168;42.708;23.286;2023-05-10T09:33:51;8.20;;;5.75;;
79697;SDS011;69168;42.708;23.286;2023-05-10T09:36:17;10.88;;;6.25;;
79697;SDS011;69168;42.708;23.286;2023-05-10T09:38:49;8.55;;;6.15;;
79697;SDS011;69168;42.708;23.286;2023-05-10T09:41:22;10.45;;;7.05;;
79697;SDS011;69168;42.708;23.286;2023-05-10T09:43:48;8.48;;;5.93;;
79697;SDS011;69168;42.708;23.286;2023-05-10T09:46:14;7.75;;;6.10;;
79697;SDS011;69168;42.708;23.286;2023-05-10T09:48:42;8.93;;;6.47;;
79697;SDS011;69168;42.708;23.286;2023-05-10T09:51:08;8.35;;;6.30;;
79697;SDS011;69168;42.708;23.286;2023-05-10T09:53:34;8.73;;;6.57;;
79697;SDS011;69168;42.708;23.286;2023-05-10T09:56:00;9.80;;;6.65;;
79697;SDS011;69168;42.708;23.286;2023-05-10T09:58:25;12.40;;;7.18;;
79697;SDS011;69168;42.708;23.286;2023-05-10T10:00:51;8.45;;;7.05;;
79697;SDS011;69168;42.708;23.286;2023-05-10T10:03:18;12.40;;;7.70;;
79697;SDS011;69168;42.708;23.286;2023-05-10T10:05:45;8.50;;;6.80;;
79697;SDS011;69168;42.708;23.286;2023-05-10T10:08:12;9.77;;;7.40;;
79697;SDS011;69168;42.708;23.286;2023-05-10T10:10:38;10.82;;;6.93;;
79697;SDS011;69168;42.708;23.286;2023-05-10T10:15:30;10.05;;;6.07;;
79697;SDS011;69168;42.708;23.286;2023-05-10T10:17:58;8.02;;;6.45;;
79697;SDS011;69168;42.708;23.286;2023-05-10T10:20:24;9.73;;;6.60;;
79697;SDS011;69168;42.708;23.286;2023-05-10T10:22:52;9.27;;;6.43;;
79697;SDS011;69168;42.708;23.286;2023-05-10T10:25:17;10.52;;;7.07;;
79697;SDS011;69168;42.708;23.286;2023-05-10T10:35:31;9.63;;;5.50;;
79697;SDS011;69168;42.708;23.286;2023-05-10T10:37:57;9.45;;;6.15;;
79697;SDS011;69168;42.708;23.286;2023-05-10T10:40:27;8.30;;;5.88;;
79697;SDS011;69168;42.708;23.286;2023-05-10T10:42:54;9.95;;;6.20;;
79697;SDS011;69168;42.708;23.286;2023-05-10T10:45:21;7.90;;;6.35;;
79697;SDS011;69168;42.708;23.286;2023-05-10T10:47:47;6.93;;;5.70;;
79697;SDS011;69168;42.708;23.286;2023-05-10T10:50:13;9.98;;;5.50;;
79697;SDS011;69168;42.708;23.286;2023-05-10T10:52:41;5.65;;;4.72;;
79697;SDS011;69168;42.708;23.286;2023-05-10T11:03:01;6.15;;;5.20;;
79697;SDS011;69168;42.708;23.286;2023-05-10T11:08:13;6.25;;;4.80;;
79697;SDS011;69168;42.708;23.286;2023-05-10T11:13:28;8.25;;;5.35;;
79697;SDS011;69168;42.708;23.286;2023-05-10T11:21:22;8.23;;;5.43;;
79697;SDS011;69168;42.708;23.286;2023-05-10T11:23:48;9.27;;;4.93;;
79697;SDS011;69168;42.708;23.286;2023-05-10T11:26:15;8.68;;;5.32;;
79697;SDS011;69168;42.708;23.286;2023-05-10T11:28:41;7.93;;;4.80;;
79697;SDS011;69168;42.708;23.286;2023-05-10T11:31:07;8.25;;;5.22;;
79697;SDS011;69168;42.708;23.286;2023-05-10T11:33:55;7.00;;;4.90;;
79697;SDS011;69168;42.708;23.286;2023-05-10T11:36:26;6.03;;;4.45;;
79697;SDS011;69168;42.708;23.286;2023-05-10T11:38:53;7.18;;;5.32;;
79697;SDS011;69168;42.708;23.286;2023-05-10T11:41:20;8.15;;;5.35;;
79697;SDS011;69168;42.708;23.286;2023-05-10T11:43:48;9.98;;;4.95;;
79697;SDS011;69168;42.708;23.286;2023-05-10T11:46:15;6.63;;;4.72;;
79697;SDS011;69168;42.708;23.286;2023-05-10T11:48:43;8.68;;;5.30;;
79697;SDS011;69168;42.708;23.286;2023-05-10T11:51:09;7.85;;;4.90;;
79697;SDS011;69168;42.708;23.286;2023-05-10T11:53:35;7.53;;;5.50;;
79697;SDS011;69168;42.708;23.286;2023-05-10T11:58:33;9.40;;;4.88;;
79697;SDS011;69168;42.708;23.286;2023-05-10T12:00:59;7.57;;;4.57;;
79697;SDS011;69168;42.708;23.286;2023-05-10T12:03:26;9.98;;;6.50;;
79697;SDS011;69168;42.708;23.286;2023-05-10T12:05:52;8.00;;;5.03;;
79697;SDS011;69168;42.708;23.286;2023-05-10T12:08:23;7.78;;;4.97;;
79697;SDS011;69168;42.708;23.286;2023-05-10T12:10:50;8.52;;;5.78;;
79697;SDS011;69168;42.708;23.286;2023-05-10T12:13:16;10.63;;;7.07;;
79697;SDS011;69168;42.708;23.286;2023-05-10T12:18:09;8.98;;;5.20;;
79697;SDS011;69168;42.708;23.286;2023-05-10T12:20:35;7.72;;;5.57;;
79697;SDS011;69168;42.708;23.286;2023-05-10T12:23:01;14.75;;;9.13;;
79697;SDS011;69168;42.708;23.286;2023-05-10T12:27:58;10.27;;;6.03;;
79697;SDS011;69168;42.708;23.286;2023-05-10T12:30:28;10.60;;;5.90;;
79697;SDS011;69168;42.708;23.286;2023-05-10T12:35:47;10.50;;;5.75;;
79697;SDS011;69168;42.708;23.286;2023-05-10T12:38:26;8.82;;;5.60;;
79697;SDS011;69168;42.708;23.286;2023-05-10T12:40:53;6.57;;;5.25;;
79697;SDS011;69168;42.708;23.286;2023-05-10T12:43:19;7.80;;;5.60;;
79697;SDS011;69168;42.708;23.286;2023-05-10T12:45:44;7.32;;;6.03;;
79697;SDS011;69168;42.708;23.286;2023-05-10T12:48:13;7.75;;;5.45;;
79697;SDS011;69168;42.708;23.286;2023-05-10T12:50:38;8.70;;;5.82;;
79697;SDS011;69168;42.708;23.286;2023-05-10T12:53:04;7.53;;;4.55;;
79697;SDS011;69168;42.708;23.286;2023-05-10T12:55:29;8.15;;;5.28;;
79697;SDS011;69168;42.708;23.286;2023-05-10T12:57:54;7.35;;;5.00;;
79697;SDS011;69168;42.708;23.286;2023-05-10T13:00:20;7.18;;;5.47;;
79697;SDS011;69168;42.708;23.286;2023-05-10T13:02:45;6.63;;;5.00;;
79697;SDS011;69168;42.708;23.286;2023-05-10T13:05:11;6.93;;;4.80;;
79697;SDS011;69168;42.708;23.286;2023-05-10T13:07:38;6.97;;;4.75;;
79697;SDS011;69168;42.708;23.286;2023-05-10T13:10:04;6.07;;;4.97;;
79697;SDS011;69168;42.708;23.286;2023-05-10T13:12:31;6.53;;;4.82;;
79697;SDS011;69168;42.708;23.286;2023-05-10T13:14:56;8.63;;;5.55;;
79697;SDS011;69168;42.708;23.286;2023-05-10T13:17:22;6.80;;;5.32;;
79697;SDS011;69168;42.708;23.286;2023-05-10T13:19:47;8.63;;;6.07;;
79697;SDS011;69168;42.708;23.286;2023-05-10T13:22:13;9.45;;;5.07;;
79697;SDS011;69168;42.708;23.286;2023-05-10T13:24:38;8.63;;;5.55;;
79697;SDS011;69168;42.708;23.286;2023-05-10T13:27:04;8.18;;;4.78;;
79697;SDS011;69168;42.708;23.286;2023-05-10T13:29:30;8.13;;;5.30;;
79697;SDS011;69168;42.708;23.286;2023-05-10T13:31:55;9.20;;;5.60;;
79697;SDS011;69168;42.708;23.286;2023-05-10T13:34:21;9.20;;;5.07;;
79697;SDS011;69168;42.708;23.286;2023-05-10T13:36:46;8.50;;;5.75;;
79697;SDS011;69168;42.708;23.286;2023-05-10T13:39:12;6.88;;;5.10;;
79697;SDS011;69168;42.708;23.286;2023-05-10T13:41:38;8.63;;;5.07;;
79697;SDS011;69168;42.708;23.286;2023-05-10T13:44:03;11.02;;;5.80;;
79697;SDS011;69168;42.708;23.286;2023-05-10T13:46:29;6.95;;;4.80;;
79697;SDS011;69168;42.708;23.286;2023-05-10T13:48:55;7.93;;;4.93;;
79697;SDS011;69168;42.708;23.286;2023-05-10T13:51:21;10.68;;;4.95;;
79697;SDS011;69168;42.708;23.286;2023-05-10T13:53:47;9.07;;;4.63;;
79697;SDS011;69168;42.708;23.286;2023-05-10T13:56:13;6.53;;;5.03;;
79697;SDS011;69168;42.708;23.286;2023-05-10T13:58:39;7.38;;;4.80;;
79697;SDS011;69168;42.708;23.286;2023-05-10T14:01:04;9.93;;;4.70;;
79697;SDS011;69168;42.708;23.286;2023-05-10T14:03:30;8.75;;;4.88;;
79697;SDS011;69168;42.708;23.286;2023-05-10T14:05:55;7.53;;;4.57;;
79697;SDS011;69168;42.708;23.286;2023-05-10T14:08:21;8.18;;;5.00;;
79697;SDS011;69168;42.708;23.286;2023-05-10T14:10:47;6.82;;;5.07;;
79697;SDS011;69168;42.708;23.286;2023-05-10T14:13:13;8.35;;;5.32;;
79697;SDS011;69168;42.708;23.286;2023-05-10T14:15:40;8.55;;;5.30;;
79697;SDS011;69168;42.708;23.286;2023-05-10T14:18:05;7.90;;;5.32;;
79697;SDS011;69168;42.708;23.286;2023-05-10T14:20:31;12.10;;;5.47;;
79697;SDS011;69168;42.708;23.286;2023-05-10T14:22:58;8.10;;;5.22;;
79697;SDS011;69168;42.708;23.286;2023-05-10T14:25:24;11.23;;;4.97;;
79697;SDS011;69168;42.708;23.286;2023-05-10T14:27:50;8.48;;;4.57;;
79697;SDS011;69168;42.708;23.286;2023-05-10T14:30:16;9.40;;;5.32;;
79697;SDS011;69168;42.708;23.286;2023-05-10T14:32:41;10.85;;;5.90;;
79697;SDS011;69168;42.708;23.286;2023-05-10T14:35:07;6.57;;;4.72;;
79697;SDS011;69168;42.708;23.286;2023-05-10T14:37:33;7.45;;;4.25;;
79697;SDS011;69168;42.708;23.286;2023-05-10T14:39:59;7.03;;;5.10;;
79697;SDS011;69168;42.708;23.286;2023-05-10T14:42:24;8.52;;;5.05;;
79697;SDS011;69168;42.708;23.286;2023-05-10T14:44:50;5.90;;;4.68;;
79697;SDS011;69168;42.708;23.286;2023-05-10T14:47:16;7.10;;;4.80;;
79697;SDS011;69168;42.708;23.286;2023-05-10T14:49:41;8.02;;;5.38;;
79697;SDS011;69168;42.708;23.286;2023-05-10T14:52:07;7.72;;;5.35;;
79697;SDS011;69168;42.708;23.286;2023-05-10T14:54:32;8.95;;;5.50;;
79697;SDS011;69168;42.708;23.286;2023-05-10T14:57:01;9.55;;;5.10;;
79697;SDS011;69168;42.708;23.286;2023-05-10T14:59:26;7.30;;;4.78;;
79697;SDS011;69168;42.708;23.286;2023-05-10T15:01:52;5.90;;;4.45;;
79697;SDS011;69168;42.708;23.286;2023-05-10T15:04:17;7.43;;;5.10;;
79697;SDS011;69168;42.708;23.286;2023-05-10T15:06:43;8.25;;;6.05;;
79697;SDS011;69168;42.708;23.286;2023-05-10T15:09:08;9.18;;;4.75;;
79697;SDS011;69168;42.708;23.286;2023-05-10T15:11:34;9.18;;;5.05;;
79697;SDS011;69168;42.708;23.286;2023-05-10T15:13:59;8.10;;;4.97;;
79697;SDS011;69168;42.708;23.286;2023-05-10T15:16:25;7.70;;;5.38;;
79697;SDS011;69168;42.708;23.286;2023-05-10T15:18:50;11.40;;;5.25;;
79697;SDS011;69168;42.708;23.286;2023-05-10T15:21:16;9.05;;;5.45;;
79697;SDS011;69168;42.708;23.286;2023-05-10T15:23:41;9.70;;;5.65;;
79697;SDS011;69168;42.708;23.286;2023-05-10T15:26:06;7.90;;;4.93;;
79697;SDS011;69168;42.708;23.286;2023-05-10T15:28:32;7.53;;;5.30;;
79697;SDS011;69168;42.708;23.286;2023-05-10T15:30:58;7.38;;;5.30;;
79697;SDS011;69168;42.708;23.286;2023-05-10T15:33:23;6.03;;;5.00;;